Time;durP1;ratioP1;P1;durP2;ratioP2;P2;SDS_P1;SDS_P2;PMS_P1;PMS_P2;Temp;Humidity;BMP_temperature;BMP_pressure;BME280_temperature;BME280_humidity;BME280_pressure;Samples;Min_cycle;Max_cycle;Signal;HPM_P1;HPM_P2
2022/03/21 00:01:17;;;;;;;68.57;44.58;;;6.60;99.90;;;;;;4930277;28;20502;-58
2022/03/21 00:03:44;;;;;;;62.63;41.65;;;6.60;99.90;;;;;;4927567;29;20175;-56
2022/03/21 00:06:10;;;;;;;64.32;43.50;;;6.60;99.90;;;;;;4926654;29;20590;-56
2022/03/21 00:08:36;;;;;;;64.28;41.75;;;6.60;99.90;;;;;;4925482;28;20473;-57
2022/03/21 00:11:02;;;;;;;62.90;41.60;;;6.70;99.90;;;;;;4928483;28;20047;-55
2022/03/21 00:13:28;;;;;;;57.55;39.17;;;6.70;99.90;;;;;;4927264;28;20043;-58
2022/03/21 00:15:55;;;;;;;63.55;39.92;;;6.70;99.90;;;;;;4923683;28;20503;-56
2022/03/21 00:18:23;;;;;;;59.58;39.38;;;6.70;99.90;;;;;;4928410;28;20086;-55
2022/03/21 00:20:50;;;;;;;59.05;39.00;;;6.70;99.90;;;;;;4939325;28;20059;-57
2022/03/21 00:23:17;;;;;;;60.22;37.67;;;6.70;99.90;;;;;;4929375;29;20047;-56
2022/03/21 00:25:43;;;;;;;56.75;38.55;;;6.70;99.90;;;;;;4930432;29;20448;-55
2022/03/21 00:28:10;;;;;;;56.55;35.80;;;6.70;99.90;;;;;;4930959;28;20054;-55
2022/03/21 00:30:38;;;;;;;56.53;37.70;;;6.70;99.90;;;;;;4929271;29;20058;-57
2022/03/21 00:33:04;;;;;;;55.97;36.70;;;6.70;99.90;;;;;;4909613;29;20039;-56
2022/03/21 00:35:30;;;;;;;50.20;35.35;;;6.70;99.90;;;;;;4924235;28;20078;-55
2022/03/21 00:37:58;;;;;;;52.50;35.90;;;6.70;99.90;;;;;;4926224;28;20090;-56
2022/03/21 00:40:24;;;;;;;55.90;36.08;;;6.60;99.90;;;;;;4925941;29;20107;-55
2022/03/21 00:42:51;;;;;;;50.13;34.47;;;6.60;99.90;;;;;;4926698;29;20087;-56
2022/03/21 00:45:22;;;;;;;56.08;33.95;;;6.60;99.90;;;;;;4926696;29;20044;-57
2022/03/21 00:47:49;;;;;;;53.53;34.85;;;6.60;99.90;;;;;;4926614;28;20130;-56
2022/03/21 00:50:16;;;;;;;55.22;35.17;;;6.60;99.90;;;;;;4914386;29;20048;-58
2022/03/21 00:52:48;;;;;;;48.05;33.03;;;6.50;99.90;;;;;;4926218;29;20082;-56
2022/03/21 00:55:16;;;;;;;52.03;34.20;;;6.50;99.90;;;;;;4929331;29;20110;-58
2022/03/21 00:57:42;;;;;;;50.67;33.50;;;6.50;99.90;;;;;;4928652;28;20055;-57
2022/03/21 01:00:12;;;;;;;49.35;33.08;;;6.50;99.90;;;;;;4925352;28;20055;-55
2022/03/21 01:02:39;;;;;;;48.95;32.45;;;6.50;99.90;;;;;;4926925;28;20055;-58
2022/03/21 01:05:07;;;;;;;47.17;32.10;;;6.50;99.90;;;;;;4926300;28;20047;-56
2022/03/21 01:07:33;;;;;;;48.10;32.40;;;6.50;99.90;;;;;;4925320;28;20430;-56
2022/03/21 01:09:59;;;;;;;45.67;31.40;;;6.40;99.90;;;;;;4925861;29;20162;-57
2022/03/21 01:12:26;;;;;;;47.75;31.58;;;6.40;99.90;;;;;;4931303;29;20059;-57
2022/03/21 01:14:52;;;;;;;50.95;32.35;;;6.40;99.90;;;;;;4926318;28;20055;-56
2022/03/21 01:17:18;;;;;;;44.05;30.38;;;6.40;99.90;;;;;;4925073;28;22360;-58
2022/03/21 01:19:43;;;;;;;46.80;29.30;;;6.40;99.90;;;;;;4925772;28;20039;-57
2022/03/21 01:22:09;;;;;;;46.95;30.65;;;6.40;99.90;;;;;;4925665;29;20064;-56
2022/03/21 01:24:37;;;;;;;43.72;29.38;;;6.40;99.90;;;;;;4926948;29;20052;-55
2022/03/21 01:27:05;;;;;;;43.88;28.77;;;6.40;99.90;;;;;;4926642;29;20047;-57
2022/03/21 01:29:31;;;;;;;47.08;28.15;;;6.30;99.90;;;;;;4928790;28;20053;-56
2022/03/21 01:31:56;;;;;;;40.92;27.30;;;6.30;99.90;;;;;;4924686;28;20083;-56
2022/03/21 01:34:22;;;;;;;41.60;27.88;;;6.30;99.90;;;;;;4925001;28;20126;-55
2022/03/21 01:36:48;;;;;;;46.20;28.10;;;6.30;99.90;;;;;;4926078;29;20131;-57
2022/03/21 01:39:14;;;;;;;43.97;27.40;;;6.30;99.90;;;;;;4925946;29;20051;-57
2022/03/21 01:41:40;;;;;;;43.28;26.25;;;6.30;99.90;;;;;;4925474;28;20182;-55
2022/03/21 01:44:08;;;;;;;42.47;26.80;;;6.30;99.90;;;;;;4924908;29;20051;-55
2022/03/21 01:46:36;;;;;;;39.13;25.92;;;6.20;99.90;;;;;;4927289;28;20050;-57
2022/03/21 01:49:04;;;;;;;39.95;26.13;;;6.20;99.90;;;;;;4926151;28;20091;-55
2022/03/21 01:51:30;;;;;;;40.60;26.15;;;6.30;99.90;;;;;;4927223;29;20043;-57
2022/03/21 01:56:43;;;;;;;38.85;24.73;;;6.20;99.90;;;;;;4927371;28;20044;-58
2022/03/21 01:59:10;;;;;;;36.08;24.65;;;6.10;99.90;;;;;;4927519;28;20051;-57
2022/03/21 02:01:37;;;;;;;36.33;24.05;;;6.10;99.90;;;;;;4927414;28;20094;-57
2022/03/21 02:04:03;;;;;;;34.72;22.65;;;6.10;99.90;;;;;;4925335;29;20594;-57
2022/03/21 02:06:29;;;;;;;39.13;24.50;;;6.00;99.90;;;;;;4927478;29;20046;-55
2022/03/21 02:08:58;;;;;;;32.80;23.30;;;6.00;99.90;;;;;;4924284;28;20051;-55
2022/03/21 02:11:26;;;;;;;36.38;23.23;;;6.00;99.90;;;;;;4925239;28;20054;-56
2022/03/21 02:13:54;;;;;;;40.90;23.95;;;6.00;99.90;;;;;;4930246;29;20089;-57
2022/03/21 02:16:21;;;;;;;37.88;23.40;;;6.00;99.90;;;;;;4928290;29;20047;-56
2022/03/21 02:18:48;;;;;;;36.05;22.63;;;5.90;99.90;;;;;;4929042;28;20086;-57
2022/03/21 02:21:24;;;;;;;37.80;22.90;;;5.90;99.90;;;;;;4918050;29;20055;-57
2022/03/21 02:24:07;;;;;;;32.20;21.90;;;5.90;99.90;;;;;;4932855;28;20206;-56
2022/03/21 02:26:33;;;;;;;;;;;5.90;99.90;;;;;;4932462;28;20071;-56
2022/03/21 02:28:59;;;;;;;36.70;21.92;;;5.80;99.90;;;;;;4932906;28;20412;-55
2022/03/21 02:31:27;;;;;;;31.52;22.67;;;5.80;99.90;;;;;;4933160;28;20054;-56
2022/03/21 02:33:54;;;;;;;33.25;22.50;;;5.70;99.90;;;;;;4929534;28;20516;-56
2022/03/21 02:36:20;;;;;;;37.13;22.67;;;5.70;99.90;;;;;;4935382;28;20044;-57
2022/03/21 02:38:47;;;;;;;34.17;21.65;;;5.70;99.90;;;;;;4928468;28;20122;-54
2022/03/21 02:41:15;;;;;;;34.05;21.38;;;5.70;99.90;;;;;;4928695;28;20055;-56
2022/03/21 02:43:51;;;;;;;35.88;21.70;;;5.70;99.90;;;;;;4930601;29;20056;-57
2022/03/21 02:46:17;;;;;;;33.22;22.63;;;5.70;99.90;;;;;;4928850;29;20846;-57
2022/03/21 02:48:46;;;;;;;35.38;22.40;;;5.70;99.90;;;;;;4929330;28;20125;-55
2022/03/21 02:51:13;;;;;;;37.88;22.42;;;5.70;99.90;;;;;;4929159;29;20093;-55
2022/03/21 02:53:39;;;;;;;33.95;20.58;;;5.70;99.90;;;;;;4925775;28;20062;-55
2022/03/21 02:56:05;;;;;;;40.90;20.95;;;5.60;99.90;;;;;;4931936;29;20114;-57
2022/03/21 02:58:31;;;;;;;31.55;20.63;;;5.60;99.90;;;;;;4932109;29;20091;-55
2022/03/21 03:01:12;;;;;;;36.90;20.58;;;5.60;99.90;;;;;;4943890;28;21088;-56
2022/03/21 03:03:38;;;;;;;29.13;19.63;;;5.60;99.90;;;;;;4929082;29;20071;-57
2022/03/21 03:06:04;;;;;;;33.60;20.25;;;5.50;99.90;;;;;;4931089;29;20478;-55
2022/03/21 03:08:31;;;;;;;32.08;20.10;;;5.50;99.90;;;;;;4930570;28;20058;-57
2022/03/21 03:10:57;;;;;;;34.95;19.67;;;5.40;99.90;;;;;;4933810;28;20099;-57
2022/03/21 03:13:23;;;;;;;26.30;18.73;;;5.40;99.90;;;;;;4927349;28;20126;-56
2022/03/21 03:15:49;;;;;;;35.47;19.45;;;5.40;99.90;;;;;;4909152;29;20060;-57
2022/03/21 03:18:15;;;;;;;30.88;18.25;;;5.30;99.90;;;;;;4930361;28;20512;-56
2022/03/21 03:20:55;;;;;;;31.02;19.25;;;5.30;99.90;;;;;;4927846;29;20090;-57
2022/03/21 03:23:30;;;;;;;27.23;18.65;;;5.30;99.90;;;;;;4927023;28;20402;-56
2022/03/21 03:26:01;;;;;;;32.83;18.50;;;5.30;99.90;;;;;;4928032;28;21564;-57
2022/03/21 03:28:28;;;;;;;29.60;18.38;;;5.20;99.90;;;;;;4931437;28;20114;-57
2022/03/21 03:30:55;;;;;;;30.40;17.95;;;5.20;99.90;;;;;;4927167;28;20048;-57
2022/03/21 03:33:22;;;;;;;31.20;18.40;;;5.10;99.90;;;;;;4927366;29;20094;-55
2022/03/21 03:35:48;;;;;;;28.05;17.75;;;5.20;99.90;;;;;;4930534;29;20051;-57
2022/03/21 03:38:18;;;;;;;29.15;17.88;;;5.20;99.90;;;;;;4928599;28;20047;-57
2022/03/21 03:40:44;;;;;;;27.65;17.98;;;5.20;99.90;;;;;;4930341;28;20043;-57
2022/03/21 03:43:12;;;;;;;28.48;17.25;;;5.20;99.90;;;;;;4927126;29;20058;-56
2022/03/21 03:45:38;;;;;;;32.97;18.38;;;5.20;99.90;;;;;;4924798;28;20044;-56
2022/03/21 03:48:04;;;;;;;30.60;18.20;;;5.20;99.90;;;;;;4930308;29;20066;-57
2022/03/21 03:50:30;;;;;;;28.40;18.05;;;5.20;99.90;;;;;;4929472;28;20044;-56
2022/03/21 03:52:56;;;;;;;31.73;18.05;;;5.20;99.90;;;;;;4929301;28;20240;-57
2022/03/21 03:55:22;;;;;;;31.40;18.15;;;5.20;99.90;;;;;;4929521;28;20675;-57
2022/03/21 03:57:49;;;;;;;29.52;18.63;;;5.20;99.90;;;;;;4928897;29;20102;-55
2022/03/21 04:00:16;;;;;;;28.13;17.95;;;5.20;99.90;;;;;;4929587;28;20055;-56
2022/03/21 04:05:28;;;;;;;26.50;17.13;;;5.20;99.90;;;;;;4924352;29;20058;-56
2022/03/21 04:07:55;;;;;;;27.40;18.60;;;5.10;99.90;;;;;;4928502;28;20051;-55
2022/03/21 04:10:24;;;;;;;31.55;19.42;;;5.20;99.90;;;;;;4896564;28;20085;-56
2022/03/21 04:12:50;;;;;;;29.48;17.70;;;5.10;99.90;;;;;;4926938;29;20059;-55
2022/03/21 04:15:20;;;;;;;30.83;18.05;;;5.10;99.90;;;;;;4922100;28;20087;-56
2022/03/21 04:17:47;;;;;;;31.35;18.48;;;5.00;99.90;;;;;;4923727;29;22785;-56
2022/03/21 04:20:13;;;;;;;29.65;18.42;;;5.00;99.90;;;;;;4923472;29;20043;-57
2022/03/21 04:22:39;;;;;;;31.20;18.75;;;5.00;99.90;;;;;;4924927;29;20066;-57
2022/03/21 04:25:07;;;;;;;27.95;18.50;;;5.00;99.90;;;;;;4924210;29;20487;-57
2022/03/21 04:27:33;;;;;;;29.70;18.15;;;5.00;99.90;;;;;;4927410;29;20047;-55
2022/03/21 04:30:03;;;;;;;32.10;18.30;;;5.00;99.90;;;;;;4929648;28;20051;-55
2022/03/21 04:32:28;;;;;;;31.33;17.77;;;5.00;99.90;;;;;;4926413;29;20042;-57
2022/03/21 04:34:54;;;;;;;32.20;18.77;;;4.90;99.90;;;;;;4928629;28;20043;-56
2022/03/21 04:37:20;;;;;;;29.65;18.10;;;5.00;99.90;;;;;;4926724;29;20047;-55
2022/03/21 04:39:46;;;;;;;32.22;19.55;;;5.00;99.90;;;;;;4927283;29;20047;-54
2022/03/21 04:42:12;;;;;;;29.63;19.30;;;5.00;99.90;;;;;;4927688;29;20059;-56
2022/03/21 04:44:39;;;;;;;29.88;18.55;;;4.90;99.90;;;;;;4929417;28;20055;-57
2022/03/21 04:47:06;;;;;;;31.67;19.05;;;4.90;99.90;;;;;;4926908;29;20054;-55
2022/03/21 04:49:32;;;;;;;32.95;20.75;;;4.90;99.90;;;;;;4927640;28;20041;-56
2022/03/21 04:51:59;;;;;;;31.27;19.73;;;4.90;99.90;;;;;;4927142;29;20138;-57
2022/03/21 04:54:28;;;;;;;32.47;19.52;;;4.90;99.90;;;;;;4920887;29;20099;-57
2022/03/21 04:56:55;;;;;;;29.83;19.70;;;4.90;99.90;;;;;;4926123;28;20040;-57
2022/03/21 04:59:21;;;;;;;34.00;20.38;;;4.90;99.90;;;;;;4925275;28;20047;-57
2022/03/21 05:01:47;;;;;;;33.33;19.23;;;4.90;99.90;;;;;;4925780;28;20309;-55
2022/03/21 05:04:13;;;;;;;31.90;19.58;;;4.90;99.90;;;;;;4927154;28;20043;-57
2022/03/21 05:06:39;;;;;;;33.45;19.80;;;5.00;99.90;;;;;;4927434;29;20476;-56
2022/03/21 05:09:06;;;;;;;27.48;18.42;;;4.80;99.90;;;;;;4927063;29;20062;-57
2022/03/21 05:11:32;;;;;;;28.83;18.45;;;4.80;99.90;;;;;;4924917;28;20119;-55
2022/03/21 05:13:58;;;;;;;35.70;18.75;;;4.80;99.90;;;;;;4925182;29;20055;-54
2022/03/21 05:16:24;;;;;;;32.30;19.60;;;4.80;99.90;;;;;;4931381;29;21786;-57
2022/03/21 05:18:50;;;;;;;28.83;17.75;;;4.70;99.90;;;;;;4927153;29;20425;-55
2022/03/21 05:21:16;;;;;;;31.77;18.58;;;4.70;99.90;;;;;;4926362;29;20066;-56
2022/03/21 05:31:56;;;;;;;29.92;17.90;;;4.60;99.90;;;;;;4927049;28;20565;-56
2022/03/21 05:37:06;;;;;;;28.63;16.38;;;4.50;99.90;;;;;;4925833;29;20768;-55
2022/03/21 05:39:32;;;;;;;28.92;17.15;;;4.40;99.90;;;;;;4925041;28;20047;-55
2022/03/21 05:41:57;;;;;;;28.88;16.75;;;4.40;99.90;;;;;;4925952;28;20091;-57
2022/03/21 05:44:26;;;;;;;25.98;16.83;;;4.30;99.90;;;;;;4925427;28;20047;-57
2022/03/21 05:46:52;;;;;;;28.63;15.88;;;4.30;99.90;;;;;;4928849;28;20478;-55
2022/03/21 05:49:17;;;;;;;32.55;18.83;;;4.30;99.90;;;;;;4930462;29;20052;-56
2022/03/21 05:51:43;;;;;;;31.40;17.63;;;4.20;99.90;;;;;;4935297;28;20039;-56
2022/03/21 05:54:13;;;;;;;31.27;18.92;;;4.30;99.90;;;;;;4929839;29;20125;-56
2022/03/21 05:56:41;;;;;;;31.98;18.98;;;4.20;99.90;;;;;;4933396;28;20046;-55
2022/03/21 06:01:53;;;;;;;28.10;17.50;;;4.20;99.90;;;;;;4930237;28;20118;-53
2022/03/21 06:04:19;;;;;;;28.90;18.25;;;4.10;99.90;;;;;;4930471;28;20162;-57
2022/03/21 06:06:46;;;;;;;27.00;17.67;;;4.10;99.90;;;;;;4934870;28;20058;-56
2022/03/21 06:09:12;;;;;;;31.33;18.88;;;4.10;99.90;;;;;;4933506;28;20043;-55
2022/03/21 06:11:39;;;;;;;28.60;17.83;;;4.10;99.90;;;;;;4931720;29;20044;-57
2022/03/21 06:14:05;;;;;;;27.75;16.90;;;4.10;99.90;;;;;;4931470;28;20087;-56
2022/03/21 06:16:33;;;;;;;37.50;20.25;;;4.10;99.90;;;;;;4931058;29;20047;-57
2022/03/21 06:19:00;;;;;;;35.10;19.60;;;4.20;99.90;;;;;;4932211;29;20047;-56
2022/03/21 06:21:27;;;;;;;31.58;19.65;;;4.10;99.90;;;;;;4930510;29;20693;-57
2022/03/21 06:23:53;;;;;;;30.77;19.55;;;4.10;99.90;;;;;;4930775;29;20043;-55
2022/03/21 06:26:19;;;;;;;28.48;18.00;;;4.10;99.90;;;;;;4931274;28;20052;-57
2022/03/21 06:28:45;;;;;;;34.22;20.33;;;4.10;99.90;;;;;;4931079;28;22501;-55
2022/03/21 06:31:11;;;;;;;35.78;20.88;;;4.10;99.90;;;;;;4940420;28;20035;-56
2022/03/21 06:33:37;;;;;;;35.60;21.90;;;4.20;99.90;;;;;;4932490;29;20117;-56
2022/03/21 06:36:03;;;;;;;35.15;21.75;;;4.20;99.90;;;;;;4934707;29;20134;-52
2022/03/21 06:38:30;;;;;;;38.05;21.25;;;4.20;99.90;;;;;;4933423;28;20123;-56
2022/03/21 06:40:57;;;;;;;34.08;22.25;;;4.20;99.90;;;;;;4931119;28;20082;-56
2022/03/21 06:43:24;;;;;;;38.40;22.02;;;4.20;99.90;;;;;;4935912;28;20071;-55
2022/03/21 06:45:51;;;;;;;38.10;22.70;;;4.30;99.90;;;;;;4937189;29;20039;-54
2022/03/21 06:48:18;;;;;;;36.63;23.60;;;4.30;99.90;;;;;;4932959;28;20047;-57
2022/03/21 06:50:46;;;;;;;40.70;23.73;;;4.40;99.90;;;;;;4934172;28;20057;-55
2022/03/21 06:53:13;;;;;;;36.88;22.83;;;4.50;99.90;;;;;;4934227;28;20055;-56
2022/03/21 06:55:39;;;;;;;41.17;24.67;;;4.40;99.90;;;;;;4937176;28;20046;-56
2022/03/21 06:58:08;;;;;;;38.72;24.17;;;4.50;99.90;;;;;;4931577;28;20505;-55
2022/03/21 07:00:34;;;;;;;40.10;24.38;;;4.50;99.90;;;;;;4929305;28;20050;-55
2022/03/21 07:03:00;;;;;;;36.50;24.35;;;4.50;99.90;;;;;;4928691;29;20146;-57
2022/03/21 07:05:28;;;;;;;42.40;25.42;;;4.60;99.90;;;;;;4926347;29;20453;-56
2022/03/21 07:07:55;;;;;;;43.33;26.65;;;4.70;99.90;;;;;;4929155;28;20478;-56
2022/03/21 07:10:20;;;;;;;42.63;27.52;;;4.80;99.90;;;;;;4927260;29;20054;-55
2022/03/21 07:12:46;;;;;;;45.42;27.70;;;4.70;99.90;;;;;;4928673;28;20066;-56
2022/03/21 07:15:12;;;;;;;45.83;27.73;;;4.80;99.90;;;;;;4926575;28;20714;-55
2022/03/21 07:17:41;;;;;;;43.45;28.17;;;4.90;99.90;;;;;;4931190;29;20573;-56
2022/03/21 07:20:09;;;;;;;48.92;29.05;;;5.00;99.90;;;;;;4930556;29;20044;-57
2022/03/21 07:22:35;;;;;;;43.60;28.42;;;5.00;99.90;;;;;;4929307;29;20126;-56
2022/03/21 07:25:01;;;;;;;51.40;30.58;;;5.10;99.90;;;;;;4930072;29;20043;-55
2022/03/21 07:27:27;;;;;;;46.42;29.63;;;5.10;99.90;;;;;;4934608;28;20052;-56
2022/03/21 07:29:52;;;;;;;50.22;30.85;;;5.20;99.90;;;;;;4929012;28;20462;-56
2022/03/21 07:32:19;;;;;;;49.92;31.30;;;5.20;99.90;;;;;;4927759;28;21243;-56
2022/03/21 07:34:45;;;;;;;48.80;31.45;;;5.30;99.90;;;;;;4929169;28;20043;-56
2022/03/21 07:37:11;;;;;;;52.60;33.42;;;5.40;99.90;;;;;;4928745;29;20055;-55
2022/03/21 07:39:37;;;;;;;51.05;31.92;;;5.40;99.90;;;;;;4926618;28;20905;-56
2022/03/21 07:42:03;;;;;;;50.85;31.33;;;5.50;99.90;;;;;;4933113;28;20074;-56
2022/03/21 07:47:23;;;;;;;44.15;27.75;;;5.70;99.90;;;;;;4927648;28;20441;-57
2022/03/21 07:49:51;;;;;;;45.88;28.10;;;5.90;99.90;;;;;;4928725;29;20047;-51
2022/03/21 07:52:18;;;;;;;41.88;26.92;;;6.00;99.90;;;;;;4928012;29;20051;-56
2022/03/21 07:54:46;;;;;;;43.40;25.45;;;6.10;99.90;;;;;;4929679;28;20075;-57
2022/03/21 07:57:12;;;;;;;40.67;23.88;;;6.10;99.90;;;;;;4928566;28;20525;-56
2022/03/21 07:59:38;;;;;;;37.95;23.60;;;6.30;99.90;;;;;;4933608;28;20174;-56
2022/03/21 08:02:05;;;;;;;37.10;23.70;;;6.30;99.90;;;;;;4935567;28;20486;-57
2022/03/21 08:04:32;;;;;;;40.45;23.48;;;6.50;99.90;;;;;;4935433;28;20036;-56
2022/03/21 08:06:59;;;;;;;36.13;23.63;;;6.60;99.90;;;;;;4934100;28;20043;-56
2022/03/21 08:09:27;;;;;;;37.83;23.00;;;6.70;99.90;;;;;;4929179;28;20049;-56
2022/03/21 08:11:54;;;;;;;42.40;25.20;;;6.90;99.90;;;;;;4929394;28;20051;-56
2022/03/21 08:14:21;;;;;;;45.28;24.60;;;7.00;99.90;;;;;;4928846;29;20035;-55
2022/03/21 08:16:46;;;;;;;40.00;24.20;;;7.20;99.90;;;;;;4928062;29;20089;-57
2022/03/21 08:19:12;;;;;;;35.80;24.00;;;7.30;99.90;;;;;;4928769;28;22989;-55
2022/03/21 08:21:38;;;;;;;35.70;22.80;;;7.40;99.90;;;;;;4927779;29;20075;-56
2022/03/21 08:24:05;;;;;;;39.40;23.45;;;7.50;99.90;;;;;;4927096;28;20054;-56
2022/03/21 08:26:31;;;;;;;37.15;23.38;;;7.60;99.90;;;;;;4930934;28;20175;-57
2022/03/21 08:28:57;;;;;;;32.38;21.27;;;7.80;99.90;;;;;;4928070;28;20574;-55
2022/03/21 08:31:23;;;;;;;36.78;21.88;;;7.90;99.90;;;;;;4927578;28;20066;-56
2022/03/21 08:33:49;;;;;;;40.08;22.77;;;8.00;99.90;;;;;;4929303;29;20118;-56
2022/03/21 08:36:14;;;;;;;31.67;21.27;;;8.10;99.90;;;;;;4930488;29;20094;-56
2022/03/21 08:38:40;;;;;;;35.90;24.02;;;8.20;99.90;;;;;;4931387;29;20043;-56
2022/03/21 08:41:06;;;;;;;32.78;22.13;;;8.30;99.90;;;;;;4930449;28;21189;-57
2022/03/21 08:43:32;;;;;;;34.70;22.27;;;8.40;99.90;;;;;;4925934;28;20122;-56
2022/03/21 08:45:58;;;;;;;32.30;21.60;;;8.60;99.90;;;;;;4934881;28;20047;-56
2022/03/21 08:49:23;;;;;;;34.63;22.02;;;8.70;99.90;;;;;;4925996;28;20039;-57
2022/03/21 08:51:10;;;;;;;38.13;21.70;;;8.80;99.90;;;;;;4929046;28;20143;-57
2022/03/21 08:53:36;;;;;;;38.50;21.55;;;8.90;99.90;;;;;;4930104;28;20122;-56
2022/03/21 08:56:03;;;;;;;34.25;22.17;;;9.10;99.90;;;;;;4928677;28;20051;-57
2022/03/21 08:58:28;;;;;;;39.15;23.63;;;9.20;99.90;;;;;;4928808;28;20050;-56
2022/03/21 09:00:54;;;;;;;32.17;22.80;;;9.30;99.90;;;;;;4928880;28;20066;-54
2022/03/21 09:03:20;;;;;;;33.20;21.95;;;9.50;99.90;;;;;;4927218;29;20554;-57
2022/03/21 09:05:46;;;;;;;33.45;21.52;;;9.60;99.90;;;;;;4931728;29;20130;-57
2022/03/21 09:08:12;;;;;;;35.65;23.00;;;9.80;99.90;;;;;;4927561;28;20086;-57
2022/03/21 09:10:38;;;;;;;34.05;21.85;;;9.90;99.90;;;;;;4927153;29;20051;-57
2022/03/21 09:13:05;;;;;;;33.55;21.23;;;10.00;99.90;;;;;;4928408;28;20074;-57
2022/03/21 09:15:31;;;;;;;36.55;21.48;;;10.20;99.90;;;;;;4928193;29;20047;-56
2022/03/21 09:17:58;;;;;;;35.78;21.38;;;10.30;99.90;;;;;;4926497;29;20055;-52
2022/03/21 09:20:23;;;;;;;31.65;21.02;;;10.50;99.90;;;;;;4928802;29;20064;-55
2022/03/21 09:22:49;;;;;;;32.75;20.33;;;10.60;99.90;;;;;;4929548;29;20050;-57
2022/03/21 09:25:17;;;;;;;33.20;21.38;;;10.70;99.90;;;;;;4927073;29;20055;-56
2022/03/21 09:27:42;;;;;;;34.85;22.02;;;10.90;99.90;;;;;;4926103;29;20043;-57
2022/03/21 09:30:10;;;;;;;34.95;21.65;;;11.10;99.90;;;;;;4925743;28;20062;-58
2022/03/21 09:32:36;;;;;;;48.88;21.48;;;11.20;99.90;;;;;;4928980;28;20073;-55
2022/03/21 09:35:03;;;;;;;43.13;22.23;;;11.40;99.90;;;;;;4929423;28;20184;-57
2022/03/21 09:37:29;;;;;;;33.90;20.92;;;11.50;99.90;;;;;;4926492;29;20066;-56
2022/03/21 09:39:55;;;;;;;34.45;19.95;;;11.60;99.90;;;;;;4926430;28;20486;-55
2022/03/21 09:42:21;;;;;;;32.25;20.13;;;11.80;99.90;;;;;;4929731;28;20057;-57
2022/03/21 09:44:52;;;;;;;31.83;19.85;;;11.90;99.80;;;;;;4927172;28;20342;-56
2022/03/21 09:50:10;;;;;;;44.65;20.25;;;12.10;98.50;;;;;;4925400;28;20047;-57
2022/03/21 09:52:37;;;;;;;36.03;19.20;;;12.20;98.20;;;;;;4929048;29;20098;-58
2022/03/21 09:55:05;;;;;;;67.10;22.05;;;12.30;97.80;;;;;;4931471;28;20051;-56
2022/03/21 09:57:31;;;;;;;35.47;19.40;;;12.50;97.10;;;;;;4929699;29;21090;-57
2022/03/21 09:59:58;;;;;;;31.58;19.63;;;12.70;96.80;;;;;;4929250;29;20059;-56
2022/03/21 10:02:24;;;;;;;30.88;18.85;;;12.80;95.80;;;;;;4929972;29;20130;-57
2022/03/21 10:04:51;;;;;;;30.25;19.05;;;12.90;95.00;;;;;;4932386;28;20051;-56
2022/03/21 10:07:26;;;;;;;30.90;19.30;;;13.10;95.00;;;;;;4933461;28;20078;-57
2022/03/21 10:10:18;;;;;;;28.73;17.65;;;13.20;93.90;;;;;;4927829;29;20053;-57
2022/03/21 10:12:44;;;;;;;29.55;19.20;;;13.40;91.40;;;;;;4929643;29;20142;-58
2022/03/21 10:15:11;;;;;;;27.70;18.02;;;13.50;90.90;;;;;;4925716;28;20067;-55
2022/03/21 10:17:37;;;;;;;24.67;16.95;;;13.60;89.90;;;;;;4927663;28;20055;-58
2022/03/21 10:20:07;;;;;;;27.27;17.08;;;13.60;84.80;;;;;;4926855;29;20043;-57
2022/03/21 10:22:33;;;;;;;28.75;17.90;;;13.70;83.20;;;;;;4926402;28;20055;-57
2022/03/21 10:25:04;;;;;;;38.65;16.83;;;13.80;80.90;;;;;;4926267;29;20062;-54
2022/03/21 10:27:37;;;;;;;33.65;18.05;;;13.90;78.40;;;;;;4928976;29;20493;-57
2022/03/21 10:30:10;;;;;;;;;;;14.00;78.30;;;;;;4928540;28;20052;-58
2022/03/21 10:32:42;;;;;;;27.08;17.10;;;14.10;77.20;;;;;;4928826;28;20016;-57
2022/03/21 10:35:22;;;;;;;26.42;17.63;;;14.30;76.50;;;;;;4932009;29;20051;-54
2022/03/21 10:37:48;;;;;;;23.90;16.85;;;14.30;74.50;;;;;;4932626;29;20094;-58
2022/03/21 10:40:33;;;;;;;26.80;17.17;;;14.40;73.90;;;;;;4921276;29;20059;-58
2022/03/21 10:43:00;;;;;;;27.92;18.33;;;14.50;71.30;;;;;;4932068;28;22415;-58
2022/03/21 10:45:42;;;;;;;27.33;18.35;;;14.50;71.80;;;;;;4928800;29;20130;-57
2022/03/21 10:48:11;;;;;;;28.13;17.58;;;14.70;71.40;;;;;;4930761;28;20450;-57
2022/03/21 10:50:42;;;;;;;25.00;16.90;;;14.70;71.50;;;;;;4929511;29;20044;-58
2022/03/21 10:53:17;;;;;;;31.83;17.10;;;14.90;70.00;;;;;;4934560;29;20082;-58
2022/03/21 10:55:45;;;;;;;24.73;17.20;;;15.00;70.30;;;;;;4934651;28;20186;-58
2022/03/21 10:58:13;;;;;;;28.27;18.08;;;15.20;69.30;;;;;;4933377;29;20394;-57
2022/03/21 11:00:39;;;;;;;24.63;16.70;;;15.40;69.40;;;;;;4930198;29;20107;-59
2022/03/21 11:03:15;;;;;;;27.15;18.50;;;15.50;69.40;;;;;;4929463;28;20431;-58
2022/03/21 11:05:50;;;;;;;26.40;17.40;;;15.70;68.30;;;;;;4931491;28;20043;-58
2022/03/21 11:08:18;;;;;;;25.63;17.45;;;15.80;66.80;;;;;;4930433;29;20052;-57
2022/03/21 11:10:47;;;;;;;26.45;18.58;;;15.90;66.50;;;;;;4930735;28;20144;-56
2022/03/21 11:13:13;;;;;;;26.30;17.27;;;16.10;66.20;;;;;;4913812;28;20929;-58
2022/03/21 11:15:40;;;;;;;28.55;17.35;;;16.20;65.40;;;;;;4931549;28;20079;-58
2022/03/21 11:18:07;;;;;;;32.55;18.25;;;16.30;65.10;;;;;;4927579;28;20109;-58
2022/03/21 11:20:34;;;;;;;23.90;16.90;;;16.40;65.00;;;;;;4928873;29;20063;-58
2022/03/21 11:23:01;;;;;;;29.27;17.55;;;16.60;64.70;;;;;;4929605;29;20099;-57
2022/03/21 11:25:37;;;;;;;26.00;17.73;;;16.60;63.20;;;;;;4928124;29;20481;-59
2022/03/21 11:28:39;;;;;;;23.30;16.80;;;16.60;62.20;;;;;;4929779;28;20043;-58
2022/03/21 11:31:10;;;;;;;28.50;17.00;;;16.70;61.80;;;;;;4923970;28;20191;-58
2022/03/21 11:33:58;;;;;;;28.50;17.88;;;16.70;62.40;;;;;;4928339;28;20898;-56
2022/03/21 11:36:24;;;;;;;24.58;16.88;;;16.90;60.30;;;;;;4928515;29;20051;-56
2022/03/21 11:39:01;;;;;;;24.80;17.25;;;17.00;61.40;;;;;;4926026;28;20055;-57
2022/03/21 11:41:29;;;;;;;23.42;15.93;;;17.10;59.90;;;;;;4930067;28;20171;-58
2022/03/21 11:44:04;;;;;;;29.35;17.25;;;17.30;60.50;;;;;;4923649;28;20513;-58
2022/03/21 11:46:37;;;;;;;23.80;16.58;;;17.40;59.30;;;;;;4925898;29;20126;-57
2022/03/21 11:49:25;;;;;;;20.35;15.70;;;17.50;59.90;;;;;;4928864;28;20048;-58
2022/03/21 11:52:00;;;;;;;27.08;16.48;;;17.60;58.70;;;;;;4927399;28;20161;-57
2022/03/21 11:54:31;;;;;;;23.73;16.30;;;17.70;58.30;;;;;;4926764;28;20100;-58
2022/03/21 11:56:59;;;;;;;22.20;15.60;;;17.80;58.70;;;;;;4927209;28;20055;-58
2022/03/21 11:59:34;;;;;;;22.15;16.35;;;17.90;57.60;;;;;;4923171;28;20047;-56
2022/03/21 12:02:22;;;;;;;27.13;16.73;;;18.00;58.00;;;;;;4920663;28;20043;-54
2022/03/21 12:05:00;;;;;;;25.98;15.63;;;18.10;57.40;;;;;;4924000;28;20073;-57
2022/03/21 12:07:26;;;;;;;23.77;15.48;;;18.30;57.80;;;;;;4925683;28;20308;-58
2022/03/21 12:09:54;;;;;;;21.13;15.40;;;18.40;57.40;;;;;;4928009;28;20055;-57
2022/03/21 12:12:46;;;;;;;26.50;15.98;;;18.50;57.10;;;;;;4923590;28;20043;-57
2022/03/21 12:15:17;;;;;;;25.07;15.17;;;18.60;55.60;;;;;;4921291;29;20070;-57
2022/03/21 12:17:48;;;;;;;20.90;15.10;;;18.70;56.40;;;;;;4926140;28;20307;-59
2022/03/21 12:20:18;;;;;;;19.48;14.13;;;18.70;54.70;;;;;;4925657;29;20055;-56
2022/03/21 12:22:48;;;;;;;26.02;15.45;;;18.80;55.10;;;;;;4925600;28;20071;-58
2022/03/21 12:25:17;;;;;;;22.10;15.15;;;18.90;54.50;;;;;;4925103;29;20094;-58
2022/03/21 12:27:55;;;;;;;23.63;16.02;;;18.90;54.10;;;;;;4925083;28;20039;-58
2022/03/21 12:30:20;;;;;;;22.58;14.68;;;19.00;53.80;;;;;;4923300;28;20040;-58
2022/03/21 12:32:52;;;;;;;23.98;14.55;;;19.00;54.20;;;;;;4923621;28;20062;-58
2022/03/21 12:35:51;;;;;;;21.70;14.35;;;19.20;54.10;;;;;;4921313;28;21253;-59
2022/03/21 12:38:22;;;;;;;23.55;14.95;;;19.30;54.10;;;;;;4921421;29;20074;-57
2022/03/21 12:40:50;;;;;;;22.52;14.90;;;19.40;52.20;;;;;;4920749;28;20051;-59
2022/03/21 12:43:21;;;;;;;20.42;14.93;;;19.40;51.90;;;;;;4923262;29;20145;-57
2022/03/21 12:45:49;;;;;;;20.92;14.70;;;19.50;51.40;;;;;;4923470;28;20035;-57
2022/03/21 12:48:19;;;;;;;31.55;16.05;;;19.70;52.10;;;;;;4938727;28;20043;-57
2022/03/21 12:50:49;;;;;;;22.60;15.25;;;19.80;51.90;;;;;;4924252;28;20065;-58
2022/03/21 12:53:18;;;;;;;21.17;15.10;;;20.00;51.30;;;;;;4925514;28;20048;-58
2022/03/21 12:56:00;;;;;;;22.48;14.35;;;20.00;51.60;;;;;;4920407;28;20057;-55
2022/03/21 12:58:26;;;;;;;21.52;14.60;;;20.10;51.10;;;;;;4923936;29;20754;-56
2022/03/21 13:00:55;;;;;;;20.77;14.02;;;20.20;50.90;;;;;;4922537;28;20172;-58
2022/03/21 13:03:23;;;;;;;21.00;14.27;;;20.30;50.70;;;;;;4925362;28;20048;-58
2022/03/21 13:11:35;;;;;;;19.38;13.63;;;20.50;50.10;;;;;;4923878;28;20465;-58